KEWK/EWK METAR and TAF weather

Enter ICAO airport designator
Station Type Date Time Source
KEWK METAR 2020/06/03 14:56 UTC NOAA

KEWK 031456Z AUTO 22010KT 10SM CLR 27/20 A2994 RMK AO2 SLP122 T02670200 53003


Station Type Date Time Source
KEWK Decoded METAR 2020/06/03 14:56 UTC NOAA

Newton, Newton City/County Airport, KS, United States (KEWK) 38-03N 097-17W
Jun 03, 2020 - 10:56 AM EDT / 2020.06.03 1456 UTC
Wind: from the SW (220 degrees) at 12 MPH (10 KT):0
Visibility: 10 mile(s):0
Sky conditions: clear
Temperature: 80.1 F (26.7 C)
Dew Point: 68.0 F (20.0 C)
Relative Humidity: 66%
Pressure (altimeter): 29.94 in. Hg (1013 hPa)
Pressure tendency: 0.01 inches (0.3 hPa) higher than three hours ago
ob: KEWK 031456Z AUTO 22010KT 10SM CLR 27/20 A2994 RMK AO2 SLP122 T02670200 53003
cycle: 15

Station Type Date Time Source
KEWK TAF UTC NOAA

Error!

Example: see airport list